Time;durP1;ratioP1;P1;durP2;ratioP2;P2;SDS_P1;SDS_P2;PMS_P1;PMS_P2;Temp;Humidity;BMP_temperature;BMP_pressure;BME280_temperature;BME280_humidity;BME280_pressure;Samples;Min_cycle;Max_cycle;Signal;HPM_P1;HPM_P2
2022/07/22 00:01:11;;;;;;;9.70;6.40;;;;;;;20.46;73.41;98944.41;105200;1270;61339;-70
2022/07/22 00:03:37;;;;;;;10.10;6.50;;;;;;;20.44;73.88;98949.39;105253;1271;61463;-70
2022/07/22 00:06:03;;;;;;;7.90;7.10;;;;;;;20.40;74.21;98952.09;105199;1271;61299;-70
2022/07/22 00:08:30;;;;;;;9.20;7.20;;;;;;;20.34;74.93;98953.43;105225;1271;61351;-69
2022/07/22 00:10:55;;;;;;;8.80;6.80;;;;;;;20.28;75.51;98957.75;105194;1271;61377;-70
2022/07/22 00:13:21;;;;;;;9.20;7.10;;;;;;;20.19;76.54;98964.86;105219;1271;61362;-70
2022/07/22 00:15:47;;;;;;;11.20;7.60;;;;;;;20.08;76.84;98962.09;105187;1271;61369;-69
2022/07/22 00:18:14;;;;;;;8.60;7.30;;;;;;;20.02;77.44;98962.17;105213;1270;61482;-69
2022/07/22 00:20:41;;;;;;;10.40;7.50;;;;;;;19.98;77.87;98963.67;104929;1271;61218;-70
2022/07/22 00:23:07;;;;;;;11.50;8.60;;;;;;;19.94;78.38;98959.20;105202;1270;61260;-70
2022/07/22 00:25:33;;;;;;;9.30;8.10;;;;;;;19.91;78.87;98957.57;105203;1271;61387;-69
2022/07/22 00:27:59;;;;;;;8.30;7.00;;;;;;;19.85;79.57;98968.86;105198;1271;61394;-69
2022/07/22 00:30:25;;;;;;;11.60;8.20;;;;;;;19.73;80.44;98955.84;105166;1271;61291;-70
2022/07/22 00:32:51;;;;;;;10.30;7.30;;;;;;;19.66;81.22;98956.59;105243;1271;61371;-70
2022/07/22 00:35:17;;;;;;;11.20;6.60;;;;;;;19.60;81.88;98971.45;105274;1269;61660;-71
2022/07/22 00:37:43;;;;;;;7.90;6.60;;;;;;;19.53;82.17;98973.61;105221;1271;73662;-69
2022/07/22 00:40:10;;;;;;;11.00;7.40;;;;;;;19.47;82.81;98975.34;105190;1271;61383;-70
2022/07/22 00:42:36;;;;;;;7.90;6.40;;;;;;;19.43;83.24;98975.17;104987;1273;61364;-68
2022/07/22 00:45:03;;;;;;;7.90;7.10;;;;;;;19.42;83.86;98964.83;104970;1271;61436;-69
2022/07/22 00:47:30;;;;;;;9.70;6.80;;;;;;;19.39;84.33;98983.71;105039;1274;69704;-69
2022/07/22 00:49:56;;;;;;;9.40;7.10;;;;;;;19.31;84.77;98963.83;104890;1274;61368;-70
2022/07/22 00:52:22;;;;;;;7.90;7.00;;;;;;;19.29;85.40;98978.46;104969;1274;61565;-70
2022/07/22 00:54:50;;;;;;;10.10;7.40;;;;;;;19.27;85.17;98964.08;105264;1272;61372;-70
2022/07/22 00:57:16;;;;;;;8.60;6.90;;;;;;;19.28;85.87;98968.64;104998;1274;75323;-70
2022/07/22 00:59:42;;;;;;;8.30;6.70;;;;;;;19.25;86.23;98974.73;104980;1274;61358;-70
2022/07/22 01:02:09;;;;;;;8.40;6.80;;;;;;;19.20;86.59;98975.20;104974;1273;61311;-69
2022/07/22 01:04:36;;;;;;;8.10;6.70;;;;;;;19.15;87.24;98982.05;104997;1274;61484;-68
2022/07/22 01:07:02;;;;;;;8.70;7.50;;;;;;;19.06;87.91;98988.34;104788;1274;61253;-69
2022/07/22 01:09:29;;;;;;;8.10;7.20;;;;;;;18.99;88.64;98993.20;104911;1274;76808;-70
2022/07/22 01:11:55;;;;;;;8.20;7.30;;;;;;;18.94;89.51;98992.80;104954;1274;61467;-69
2022/07/22 01:14:21;;;;;;;8.90;7.40;;;;;;;18.89;90.53;98995.36;105121;1271;61371;-70
2022/07/22 01:16:47;;;;;;;9.60;8.10;;;;;;;18.83;91.16;98992.84;105185;1271;61282;-70
2022/07/22 01:19:13;;;;;;;8.20;7.20;;;;;;;18.82;91.86;98999.30;105230;1271;61351;-70
2022/07/22 01:21:38;;;;;;;11.80;8.60;;;;;;;18.82;92.36;98997.11;105158;1271;61288;-72
2022/07/22 01:24:06;;;;;;;10.90;7.90;;;;;;;18.83;92.72;98991.73;105244;1269;61352;-70
2022/07/22 01:26:33;;;;;;;8.70;7.90;;;;;;;18.85;92.97;98991.52;105086;1271;61385;-70
2022/07/22 01:28:59;;;;;;;10.50;8.40;;;;;;;18.88;93.33;98994.02;105260;1269;63210;-70
2022/07/22 01:31:25;;;;;;;10.20;8.70;;;;;;;18.89;93.64;98995.19;105253;1271;61451;-69
2022/07/22 01:33:51;;;;;;;10.60;8.90;;;;;;;18.89;93.87;98996.30;105190;1271;61502;-68
2022/07/22 01:36:18;;;;;;;10.80;8.60;;;;;;;18.88;94.38;98994.51;104968;1271;61355;-70
2022/07/22 01:38:45;;;;;;;11.40;8.90;;;;;;;18.86;94.64;98988.44;104955;1271;61370;-69
2022/07/22 01:41:12;;;;;;;10.70;9.40;;;;;;;18.85;94.89;98987.45;104940;1269;61357;-71
2022/07/22 01:43:37;;;;;;;13.30;9.50;;;;;;;18.84;95.41;98987.13;104997;1271;61703;-70
2022/07/22 01:46:05;;;;;;;11.30;9.80;;;;;;;18.84;96.00;98988.42;105207;1271;61250;-70
2022/07/22 01:48:30;;;;;;;11.60;9.60;;;;;;;18.82;96.93;98983.71;105007;1271;61367;-71
2022/07/22 01:50:56;;;;;;;11.80;10.00;;;;;;;18.82;96.90;98989.72;105226;1271;61743;-71
2022/07/22 01:53:22;;;;;;;11.40;9.20;;;;;;;18.82;97.15;98993.84;104941;1268;61486;-70
2022/07/22 01:55:48;;;;;;;11.70;10.50;;;;;;;18.82;97.67;98990.73;104993;1269;61393;-68
2022/07/22 01:58:14;;;;;;;11.70;9.80;;;;;;;18.82;97.80;98988.77;105055;1271;70197;-70
2022/07/22 02:00:41;;;;;;;12.80;10.00;;;;;;;18.84;97.86;98993.45;105201;1271;61307;-70
2022/07/22 02:03:06;;;;;;;13.50;10.10;;;;;;;18.86;98.09;98995.27;105216;1269;61407;-70
2022/07/22 02:05:33;;;;;;;17.90;11.10;;;;;;;18.87;98.79;98993.05;105200;1269;61261;-69
2022/07/22 02:08:02;;;;;;;11.60;10.20;;;;;;;18.87;98.91;98998.23;105027;1271;61461;-69
2022/07/22 02:10:28;;;;;;;13.50;10.60;;;;;;;18.87;99.09;98992.61;104998;1271;70477;-69
2022/07/22 02:12:55;;;;;;;12.70;11.10;;;;;;;18.89;99.68;98990.90;105196;1271;61746;-69
2022/07/22 02:15:21;;;;;;;16.70;10.40;;;;;;;18.89;99.87;98984.04;105362;1269;61510;-69
2022/07/22 02:17:47;;;;;;;12.50;10.70;;;;;;;18.90;100.00;98989.34;105212;1270;61302;-69
2022/07/22 02:20:13;;;;;;;11.30;10.10;;;;;;;18.89;100.00;98991.61;105192;1271;61621;-68
2022/07/22 02:22:40;;;;;;;14.10;10.80;;;;;;;18.89;100.00;98991.03;105064;1271;61245;-72
2022/07/22 02:25:06;;;;;;;11.20;10.10;;;;;;;18.90;100.00;98997.21;104719;1271;61476;-70
2022/07/22 02:27:32;;;;;;;12.10;10.60;;;;;;;18.93;100.00;99002.34;105187;1271;61387;-69
2022/07/22 02:29:59;;;;;;;13.40;11.10;;;;;;;18.97;100.00;99005.17;105215;1268;61326;-69
2022/07/22 02:32:24;;;;;;;14.20;10.30;;;;;;;19.02;100.00;99011.09;105223;1268;61252;-70
2022/07/22 02:34:50;;;;;;;14.00;10.20;;;;;;;19.08;100.00;99019.14;105208;1271;62028;-71
2022/07/22 02:37:17;;;;;;;11.30;10.00;;;;;;;19.14;100.00;99022.69;105175;1271;61359;-70
2022/07/22 02:39:42;;;;;;;15.20;11.50;;;;;;;19.21;100.00;99032.21;105164;1271;61358;-70
2022/07/22 02:42:09;;;;;;;13.30;10.90;;;;;;;19.29;100.00;99040.08;105223;1270;74975;-70
2022/07/22 02:44:34;;;;;;;13.50;10.50;;;;;;;19.37;100.00;99044.32;105196;1271;61360;-69
2022/07/22 02:47:00;;;;;;;11.30;10.00;;;;;;;19.45;100.00;99046.69;105191;1271;61303;-70
2022/07/22 02:49:26;;;;;;;14.30;11.80;;;;;;;19.52;100.00;99046.50;105188;1271;61391;-71
2022/07/22 02:51:52;;;;;;;12.50;10.40;;;;;;;19.60;100.00;99050.77;105216;1271;61385;-70
2022/07/22 02:54:18;;;;;;;13.20;10.20;;;;;;;19.66;100.00;99057.71;105224;1271;61383;-69
2022/07/22 02:56:44;;;;;;;13.80;10.50;;;;;;;19.71;100.00;99064.05;105224;1271;61390;-69
2022/07/22 02:59:10;;;;;;;11.20;9.90;;;;;;;19.75;100.00;99064.34;104954;1271;61322;-69
2022/07/22 03:01:36;;;;;;;11.50;10.10;;;;;;;19.79;100.00;99062.66;105247;1271;61390;-70
2022/07/22 03:04:02;;;;;;;11.60;9.90;;;;;;;19.84;100.00;99060.04;105248;1268;61304;-73
2022/07/22 03:06:28;;;;;;;11.20;10.20;;;;;;;19.89;100.00;99063.62;105269;1269;61296;-71
2022/07/22 03:08:54;;;;;;;11.00;9.90;;;;;;;19.93;100.00;99067.84;105244;1269;61339;-70
2022/07/22 03:11:20;;;;;;;15.30;10.60;;;;;;;19.98;100.00;99067.56;105249;1268;61157;-70
2022/07/22 03:13:46;;;;;;;10.60;9.60;;;;;;;20.04;100.00;99068.73;105169;1268;61416;-70
2022/07/22 03:16:12;;;;;;;10.70;9.50;;;;;;;20.09;100.00;99068.02;105066;1271;61364;-70
2022/07/22 03:18:38;;;;;;;10.80;9.80;;;;;;;20.15;100.00;99072.23;105229;1268;74300;-69
2022/07/22 03:21:04;;;;;;;10.60;9.60;;;;;;;20.23;100.00;99080.46;105176;1268;61287;-69
2022/07/22 03:23:30;;;;;;;11.60;9.40;;;;;;;20.30;100.00;99082.73;105208;1268;61353;-69
2022/07/22 03:25:56;;;;;;;11.50;9.50;;;;;;;20.37;100.00;99078.86;105253;1268;61413;-69
2022/07/22 03:28:22;;;;;;;10.60;9.60;;;;;;;20.48;100.00;99081.78;105167;1269;61381;-69
2022/07/22 03:30:48;;;;;;;11.70;9.00;;;;;;;20.58;100.00;99090.27;105205;1269;61268;-69
2022/07/22 03:33:14;;;;;;;10.50;8.80;;;;;;;20.69;100.00;99090.20;105220;1269;61376;-68
2022/07/22 03:35:40;;;;;;;10.80;9.70;;;;;;;20.84;100.00;99087.39;105217;1271;61393;-69
2022/07/22 03:38:07;;;;;;;11.30;9.30;;;;;;;21.16;100.00;99094.70;105201;1268;61118;-69
2022/07/22 03:40:32;;;;;;;10.40;9.30;;;;;;;21.46;100.00;99093.70;105255;1271;61358;-68
2022/07/22 03:42:58;;;;;;;10.20;9.10;;;;;;;21.75;100.00;99088.16;105199;1268;61306;-70
2022/07/22 03:45:24;;;;;;;12.60;9.50;;;;;;;22.04;100.00;99091.02;105199;1271;61370;-70
2022/07/22 03:47:50;;;;;;;8.40;7.40;;;;;;;22.37;100.00;99086.92;105191;1268;61259;-70
2022/07/22 03:50:16;;;;;;;10.90;8.30;;;;;;;22.69;100.00;99088.47;105201;1268;61465;-70
2022/07/22 03:52:43;;;;;;;10.00;9.10;;;;;;;23.04;98.58;99098.67;105200;1271;61390;-70
2022/07/22 03:55:09;;;;;;;9.60;8.70;;;;;;;23.32;96.16;99098.73;105288;1268;61319;-69
2022/07/22 03:57:35;;;;;;;9.00;8.10;;;;;;;23.55;93.63;99102.48;105162;1271;61263;-70
2022/07/22 04:00:03;;;;;;;11.70;8.80;;;;;;;23.88;91.73;99101.95;105190;1271;61358;-70
2022/07/22 04:02:29;;;;;;;11.50;8.00;;;;;;;24.23;88.87;99101.05;105266;1271;61448;-71
2022/07/22 04:04:55;;;;;;;9.30;8.20;;;;;;;24.54;86.74;99106.80;105168;1271;61362;-70
2022/07/22 04:07:21;;;;;;;10.70;7.70;;;;;;;24.90;84.56;99101.33;105206;1271;63107;-70
2022/07/22 04:09:47;;;;;;;10.00;7.30;;;;;;;25.21;82.21;99104.16;105186;1270;61379;-70
2022/07/22 04:12:13;;;;;;;9.10;7.20;;;;;;;25.51;79.06;99108.11;105200;1271;61380;-70
2022/07/22 04:14:39;;;;;;;10.00;7.90;;;;;;;25.67;76.29;99111.90;105218;1270;61378;-68
2022/07/22 04:17:05;;;;;;;7.80;7.00;;;;;;;25.82;75.65;99110.57;105197;1271;61279;-70
2022/07/22 04:19:31;;;;;;;7.70;6.80;;;;;;;25.92;74.54;99107.05;105222;1271;61400;-69
2022/07/22 04:21:57;;;;;;;8.40;7.40;;;;;;;25.99;72.95;99102.56;105222;1271;61176;-69
2022/07/22 04:24:23;;;;;;;7.80;7.00;;;;;;;26.08;72.81;99101.31;105252;1271;61446;-69
2022/07/22 04:26:49;;;;;;;8.40;7.30;;;;;;;26.32;71.76;99104.48;105211;1270;61288;-69
2022/07/22 04:29:15;;;;;;;9.60;7.70;;;;;;;26.63;69.96;99100.89;105217;1269;61303;-70
2022/07/22 04:31:41;;;;;;;9.80;7.90;;;;;;;26.95;68.06;99103.06;105226;1271;63100;-70
2022/07/22 04:34:07;;;;;;;8.20;7.40;;;;;;;27.15;66.71;99100.21;105224;1271;61391;-69
2022/07/22 04:36:33;;;;;;;10.10;6.80;;;;;;;27.39;65.40;99103.69;105256;1271;61297;-70
2022/07/22 04:38:59;;;;;;;7.90;7.00;;;;;;;27.61;64.37;99099.33;105223;1270;61762;-70
2022/07/22 04:41:25;;;;;;;8.10;7.20;;;;;;;27.69;62.15;99101.34;105204;1270;61276;-70
2022/07/22 04:43:51;;;;;;;8.70;7.30;;;;;;;27.47;62.68;99108.11;105214;1271;61360;-69
2022/07/22 04:46:17;;;;;;;8.40;7.40;;;;;;;27.26;63.18;99109.81;105261;1269;61328;-70
2022/07/22 04:48:43;;;;;;;8.70;7.00;;;;;;;26.99;63.50;99112.73;105214;1271;61393;-70
2022/07/22 04:51:09;;;;;;;8.10;6.70;;;;;;;26.53;64.09;99114.20;105246;1270;61276;-69
2022/07/22 04:53:35;;;;;;;7.80;7.00;;;;;;;26.03;64.85;99114.38;105236;1271;61316;-70
2022/07/22 04:56:01;;;;;;;7.80;7.20;;;;;;;25.61;66.00;99110.66;105223;1269;61319;-70
2022/07/22 04:58:27;;;;;;;7.30;6.60;;;;;;;25.26;66.87;99115.34;104860;1274;74582;-69
2022/07/22 05:00:53;;;;;;;8.20;7.30;;;;;;;24.91;67.60;99110.11;104883;1274;61527;-70
2022/07/22 05:03:19;;;;;;;8.70;7.40;;;;;;;24.61;68.43;99109.49;104890;1274;61374;-69
2022/07/22 05:05:45;;;;;;;7.90;7.20;;;;;;;24.33;69.34;99115.39;104892;1274;61490;-70
2022/07/22 05:08:11;;;;;;;8.10;7.30;;;;;;;24.12;70.12;99115.42;104908;1274;61503;-71
2022/07/22 05:10:38;;;;;;;9.20;8.00;;;;;;;23.97;70.74;99116.73;104892;1274;61379;-69
2022/07/22 05:13:04;;;;;;;8.30;7.40;;;;;;;23.83;71.56;99116.40;104889;1274;61509;-71
2022/07/22 05:15:30;;;;;;;8.20;7.50;;;;;;;23.75;72.14;99126.07;104926;1274;61475;-71
2022/07/22 05:17:56;;;;;;;8.70;7.40;;;;;;;23.71;72.53;99115.98;104895;1274;61361;-70
2022/07/22 05:20:22;;;;;;;8.90;8.00;;;;;;;23.76;72.76;99111.21;104906;1274;61390;-70
2022/07/22 05:22:48;;;;;;;7.60;6.90;;;;;;;23.94;72.77;99106.19;104906;1274;61279;-70
2022/07/22 05:25:14;;;;;;;8.40;7.60;;;;;;;24.23;72.12;99104.85;104657;1274;61282;-71
2022/07/22 05:27:50;;;;;;;8.50;7.60;;;;;;;24.81;71.43;99098.20;104898;1274;61382;-71
2022/07/22 05:30:16;;;;;;;8.20;7.50;;;;;;;25.82;69.34;99091.94;105096;1269;69441;-71
2022/07/22 05:32:42;;;;;;;8.00;7.20;;;;;;;26.85;67.26;99096.88;105191;1269;61318;-71
2022/07/22 05:35:09;;;;;;;10.40;7.90;;;;;;;27.77;65.16;99098.27;105212;1271;61335;-69
2022/07/22 05:37:35;;;;;;;8.30;7.60;;;;;;;28.57;63.01;99101.64;105196;1271;61269;-70
2022/07/22 05:40:01;;;;;;;7.70;7.00;;;;;;;29.06;60.86;99099.04;105186;1271;61329;-71
2022/07/22 05:42:27;;;;;;;7.80;7.20;;;;;;;29.22;59.32;99099.71;105169;1271;61292;-69
2022/07/22 05:44:52;;;;;;;7.80;7.20;;;;;;;29.22;58.82;99098.20;105165;1268;61418;-69
2022/07/22 05:47:19;;;;;;;7.50;6.90;;;;;;;29.19;58.26;99102.02;105232;1268;61387;-69
2022/07/22 05:49:45;;;;;;;9.20;8.10;;;;;;;29.07;57.61;99098.70;105258;1268;61301;-70
2022/07/22 05:52:10;;;;;;;8.20;7.40;;;;;;;28.92;57.04;99095.05;105191;1271;69310;-70
2022/07/22 05:54:37;;;;;;;8.10;7.40;;;;;;;28.83;57.09;99086.60;105188;1271;61347;-71
2022/07/22 05:57:03;;;;;;;8.50;7.60;;;;;;;28.63;57.25;99087.04;105243;1269;61397;-72
2022/07/22 05:59:28;;;;;;;9.80;7.40;;;;;;;28.46;57.49;99082.83;105184;1268;61501;-71
2022/07/22 06:01:55;;;;;;;8.30;7.50;;;;;;;28.34;57.80;99088.80;105205;1271;61354;-70
2022/07/22 06:04:21;;;;;;;8.40;7.50;;;;;;;28.24;57.63;99086.12;105237;1269;61346;-70
2022/07/22 06:06:47;;;;;;;8.20;7.50;;;;;;;28.22;57.33;99081.50;105162;1271;61879;-70
2022/07/22 06:09:13;;;;;;;10.50;7.70;;;;;;;28.07;56.97;99079.20;105175;1268;61372;-71
2022/07/22 06:11:39;;;;;;;10.60;7.20;;;;;;;27.81;56.94;99083.65;104976;1271;61461;-71
2022/07/22 06:14:04;;;;;;;8.40;7.60;;;;;;;27.56;57.88;99084.66;105247;1271;70662;-70
2022/07/22 06:16:32;;;;;;;9.90;8.10;;;;;;;27.40;58.07;99078.38;105196;1271;61288;-71
2022/07/22 06:18:58;;;;;;;8.90;7.70;;;;;;;27.34;58.91;99071.30;105251;1271;61143;-71
2022/07/22 06:21:24;;;;;;;9.00;8.10;;;;;;;27.34;58.87;99070.16;105236;1271;61297;-70
2022/07/22 06:23:50;;;;;;;9.50;8.00;;;;;;;27.35;58.88;99071.02;105266;1269;61476;-71
2022/07/22 06:26:16;;;;;;;9.70;8.80;;;;;;;27.40;58.72;99067.23;105254;1271;61320;-71
2022/07/22 06:28:42;;;;;;;11.50;8.20;;;;;;;27.49;58.90;99063.56;105199;1271;61294;-71
2022/07/22 06:31:08;;;;;;;9.20;8.30;;;;;;;27.55;59.00;99059.09;105213;1271;61293;-70
2022/07/22 06:33:34;;;;;;;9.60;8.10;;;;;;;27.57;58.56;99059.77;104998;1271;61380;-70
2022/07/22 06:36:00;;;;;;;8.70;7.80;;;;;;;27.66;58.71;99059.64;105259;1268;61420;-70
2022/07/22 06:38:26;;;;;;;9.30;8.20;;;;;;;27.89;58.12;99076.79;104964;1271;74851;-70
2022/07/22 06:40:52;;;;;;;11.50;8.10;;;;;;;28.15;57.78;99078.61;105227;1270;61377;-70
2022/07/22 06:43:18;;;;;;;9.00;8.10;;;;;;;28.35;57.60;99072.40;105238;1270;61358;-69
2022/07/22 06:45:44;;;;;;;8.60;7.90;;;;;;;28.40;57.09;99076.16;105244;1271;61329;-69
2022/07/22 06:48:10;;;;;;;9.50;8.50;;;;;;;28.38;56.07;99080.98;105228;1271;61298;-70
2022/07/22 06:50:36;;;;;;;9.60;8.50;;;;;;;28.20;55.95;99078.68;105255;1271;61307;-70
2022/07/22 06:53:02;;;;;;;8.80;8.10;;;;;;;28.02;56.42;99090.48;104951;1271;61354;-68
2022/07/22 06:55:28;;;;;;;11.00;9.30;;;;;;;27.87;56.35;99103.73;105220;1269;61381;-71
2022/07/22 06:57:54;;;;;;;10.20;8.20;;;;;;;27.75;57.01;99102.73;105245;1271;61278;-71
2022/07/22 07:00:21;;;;;;;9.40;8.50;;;;;;;27.59;56.56;99106.19;105225;1268;73797;-72
2022/07/22 07:02:47;;;;;;;13.70;8.80;;;;;;;27.31;57.48;99121.32;105224;1268;61377;-70
2022/07/22 07:05:13;;;;;;;9.50;8.70;;;;;;;27.18;58.05;99114.04;105252;1268;61338;-70
2022/07/22 07:07:39;;;;;;;9.90;8.90;;;;;;;27.10;58.54;99104.87;105235;1271;61335;-70
2022/07/22 07:10:09;;;;;;;10.40;9.50;;;;;;;27.07;58.61;99109.03;105217;1271;61250;-70
2022/07/22 07:12:35;;;;;;;9.20;8.40;;;;;;;27.05;58.73;99104.98;105227;1268;73587;-69
2022/07/22 07:15:02;;;;;;;10.00;8.80;;;;;;;27.12;58.73;99096.83;105263;1270;61318;-71
2022/07/22 07:17:28;;;;;;;9.50;8.30;;;;;;;27.19;58.83;99094.52;105242;1270;61134;-70
2022/07/22 07:19:53;;;;;;;11.50;8.80;;;;;;;27.27;59.11;99098.88;105255;1271;61384;-71
2022/07/22 07:22:20;;;;;;;10.20;9.10;;;;;;;27.28;58.91;99107.42;105296;1271;61287;-71
2022/07/22 07:24:46;;;;;;;9.60;8.70;;;;;;;27.26;59.42;99108.39;106045;1271;61293;-71
2022/07/22 07:27:12;;;;;;;9.50;8.60;;;;;;;27.14;58.98;99110.74;105986;1271;61434;-71
2022/07/22 07:29:38;;;;;;;9.30;8.60;;;;;;;27.02;59.66;99112.17;106860;1268;59675;-71
2022/07/22 07:32:04;;;;;;;10.90;10.10;;;;;;;26.91;59.47;99107.25;105214;1269;61285;-70
2022/07/22 07:34:30;;;;;;;11.10;10.10;;;;;;;26.78;59.43;99096.77;105185;1268;61433;-70
2022/07/22 07:36:57;;;;;;;9.60;8.60;;;;;;;26.71;59.47;99086.58;105222;1271;61381;-75
2022/07/22 07:39:23;;;;;;;10.60;9.50;;;;;;;26.68;59.67;99086.45;105270;1271;61275;-72
2022/07/22 07:41:51;;;;;;;10.00;9.00;;;;;;;26.80;60.36;99095.98;105271;1271;61348;-73
2022/07/22 07:44:17;;;;;;;10.30;9.10;;;;;;;27.05;60.43;99094.25;105325;1268;61741;-70
2022/07/22 07:46:43;;;;;;;9.60;8.80;;;;;;;27.29;60.17;99094.29;105272;1271;61373;-70
2022/07/22 07:49:09;;;;;;;10.00;9.00;;;;;;;27.61;59.90;99100.13;105243;1269;61371;-70
2022/07/22 07:51:35;;;;;;;10.70;9.40;;;;;;;27.79;59.73;99106.41;105251;1269;61276;-70
2022/07/22 07:54:01;;;;;;;9.70;8.70;;;;;;;27.94;59.12;99099.42;105212;1271;61211;-70
2022/07/22 07:56:27;;;;;;;12.20;9.90;;;;;;;27.96;58.43;99092.38;105202;1270;61364;-70
2022/07/22 07:58:53;;;;;;;10.90;9.80;;;;;;;27.95;57.95;99098.06;105249;1271;61300;-70
2022/07/22 08:01:19;;;;;;;11.00;10.00;;;;;;;28.11;58.20;99098.55;105203;1271;61357;-70
2022/07/22 08:03:45;;;;;;;11.20;10.20;;;;;;;28.35;58.21;99103.81;104969;1272;61374;-70
2022/07/22 08:06:11;;;;;;;11.60;10.20;;;;;;;28.52;57.44;99103.54;105210;1271;61255;-70
2022/07/22 08:08:37;;;;;;;11.50;10.50;;;;;;;28.55;56.92;99106.73;105213;1271;61291;-69
2022/07/22 08:11:04;;;;;;;12.30;10.90;;;;;;;28.59;56.73;99104.23;105213;1271;61272;-70
2022/07/22 08:13:30;;;;;;;13.60;9.90;;;;;;;28.46;56.38;99102.10;104996;1271;62005;-70
2022/07/22 08:15:56;;;;;;;14.70;10.60;;;;;;;28.27;56.26;99107.02;105241;1271;61365;-76
2022/07/22 08:18:22;;;;;;;11.40;10.20;;;;;;;28.19;56.51;99106.42;105232;1271;61211;-71
2022/07/22 08:20:48;;;;;;;10.50;9.30;;;;;;;28.24;56.72;99106.40;105210;1271;61286;-71
2022/07/22 08:23:15;;;;;;;12.10;10.90;;;;;;;28.28;56.42;99108.13;105237;1271;61253;-71
2022/07/22 08:25:41;;;;;;;11.10;10.10;;;;;;;28.37;56.54;99110.75;105245;1271;61339;-72
2022/07/22 08:28:06;;;;;;;11.10;10.00;;;;;;;28.47;56.60;99111.23;105219;1271;61377;-72
2022/07/22 08:30:33;;;;;;;10.90;10.00;;;;;;;28.62;56.70;99108.02;105231;1270;61394;-72
2022/07/22 08:32:58;;;;;;;12.20;10.20;;;;;;;28.74;55.60;99107.83;105007;1271;61405;-72
2022/07/22 08:35:25;;;;;;;11.70;10.70;;;;;;;29.00;55.72;99102.15;105277;1271;61284;-73
2022/07/22 08:37:51;;;;;;;12.20;11.00;;;;;;;29.38;55.19;99109.54;105287;1271;75577;-72
2022/07/22 08:40:18;;;;;;;11.00;10.10;;;;;;;29.61;54.90;99110.88;105263;1270;61372;-73
2022/07/22 08:42:47;;;;;;;11.40;10.50;;;;;;;29.67;54.24;99108.41;105242;1269;73610;-72
2022/07/22 08:45:14;;;;;;;12.40;11.10;;;;;;;29.58;52.93;99109.16;105309;1270;61248;-72
2022/07/22 08:47:44;;;;;;;11.60;10.40;;;;;;;29.31;53.29;99110.72;105249;1269;61258;-73
2022/07/22 08:50:10;;;;;;;11.70;10.70;;;;;;;29.22;53.48;99114.71;104989;1271;76418;-73
2022/07/22 08:52:39;;;;;;;11.80;10.40;;;;;;;29.16;53.92;99117.66;105204;1269;69795;-72
2022/07/22 08:55:08;;;;;;;11.30;10.40;;;;;;;29.26;54.29;99116.88;104945;1272;61304;-72
2022/07/22 08:57:35;;;;;;;11.40;10.30;;;;;;;29.49;54.23;99117.44;105247;1271;61306;-73
2022/07/22 09:00:05;;;;;;;11.80;10.60;;;;;;;29.75;53.82;99118.29;105202;1271;61990;-72
2022/07/22 09:02:36;;;;;;;;;;;;;;;29.89;52.92;99118.40;105281;1271;76338;-72
2022/07/22 09:05:09;;;;;;;12.20;10.50;;;;;;;29.98;51.72;99120.74;104955;1271;71198;-72
2022/07/22 09:07:38;;;;;;;13.20;11.10;;;;;;;30.16;52.53;99118.13;104995;1271;74164;-72
2022/07/22 09:10:07;;;;;;;14.50;10.40;;;;;;;30.48;52.08;99117.72;105286;1270;61419;-74
2022/07/22 09:12:50;;;;;;;12.20;11.00;;;;;;;30.62;51.34;99119.55;105251;1271;61942;-73
2022/07/22 09:15:28;;;;;;;12.00;10.90;;;;;;;30.75;51.28;99116.69;105231;1271;76454;-72
2022/07/22 09:17:55;;;;;;;11.80;10.20;;;;;;;30.84;51.15;99114.17;105136;1271;69183;-73
2022/07/22 09:20:21;;;;;;;11.60;10.50;;;;;;;30.90;50.84;99115.66;105056;1271;73604;-73
2022/07/22 09:22:49;;;;;;;11.00;10.10;;;;;;;30.90;50.51;99109.36;105246;1268;61324;-72
2022/07/22 09:25:30;;;;;;;11.20;10.40;;;;;;;30.97;51.12;99112.29;105270;1268;61259;-71
2022/07/22 09:28:10;;;;;;;12.30;10.40;;;;;;;31.16;50.51;99108.50;105231;1268;76710;-71
2022/07/22 09:30:39;;;;;;;11.60;10.50;;;;;;;31.38;50.51;99110.05;105351;1268;67030;-72
2022/07/22 09:33:07;;;;;;;11.10;10.10;;;;;;;31.73;50.12;99108.41;105326;1268;73542;-72
2022/07/22 09:35:33;;;;;;;10.90;9.90;;;;;;;32.03;49.47;99106.95;105217;1268;61370;-72
2022/07/22 09:38:05;;;;;;;11.40;10.40;;;;;;;32.14;48.34;99111.02;105241;1268;61197;-71
2022/07/22 09:40:35;;;;;;;12.80;10.30;;;;;;;32.02;48.04;99107.16;105100;1271;76190;-71
2022/07/22 09:43:03;;;;;;;23.80;10.50;;;;;;;31.85;48.04;99105.95;105272;1271;69259;-79
2022/07/22 09:45:32;;;;;;;11.10;10.20;;;;;;;31.80;48.08;99103.91;105131;1268;439323;-73
2022/07/22 09:48:00;;;;;;;10.40;9.50;;;;;;;31.87;47.96;99106.33;105447;1268;61291;-73
2022/07/22 09:50:29;;;;;;;9.90;9.00;;;;;;;32.04;48.00;99105.34;105357;1268;61262;-73
2022/07/22 09:52:57;;;;;;;10.90;9.80;;;;;;;32.26;47.78;99106.77;105261;1268;76424;-73
2022/07/22 09:55:25;;;;;;;10.30;9.40;;;;;;;32.51;47.50;99105.80;105250;1268;69409;-73
2022/07/22 09:57:52;;;;;;;10.90;9.90;;;;;;;32.48;46.80;99105.23;105188;1269;74597;-73
2022/07/22 10:00:22;;;;;;;9.30;8.50;;;;;;;32.43;46.38;99101.05;105282;1268;61283;-73
2022/07/22 10:02:57;;;;;;;10.30;9.40;;;;;;;32.34;46.41;99098.63;105262;1268;62109;-73
2022/07/22 10:05:26;;;;;;;11.90;10.40;;;;;;;32.51;46.71;99096.46;105259;1268;76393;-73
2022/07/22 10:07:53;;;;;;;11.70;10.00;;;;;;;32.61;45.84;99094.53;105298;1268;68229;-73
2022/07/22 10:10:26;;;;;;;11.30;9.90;;;;;;;32.65;45.87;99097.76;105233;1268;73340;-72
2022/07/22 10:12:55;;;;;;;10.20;9.40;;;;;;;32.68;46.06;99095.95;105237;1268;61265;-73
2022/07/22 10:15:23;;;;;;;11.50;9.50;;;;;;;32.74;45.09;99093.14;105268;1268;61255;-73
2022/07/22 10:17:52;;;;;;;11.50;10.30;;;;;;;32.63;44.51;99095.20;105266;1268;75096;-73
2022/07/22 10:20:30;;;;;;;;;;;;;;;32.52;43.94;99093.13;105310;1268;69510;-73
2022/07/22 10:22:57;;;;;;;10.10;8.90;;;;;;;32.47;43.21;99092.29;105249;1268;73495;-72
2022/07/22 10:25:27;;;;;;;11.00;9.90;;;;;;;32.40;42.55;99093.55;105250;1268;61377;-73
2022/07/22 10:28:04;;;;;;;10.50;9.70;;;;;;;32.41;43.94;99092.23;105256;1267;61164;-73
2022/07/22 10:30:35;;;;;;;10.10;9.20;;;;;;;32.58;44.24;99084.48;105265;1268;75551;-74
2022/07/22 10:33:14;;;;;;;11.30;9.90;;;;;;;32.67;44.86;99083.34;105323;1268;69736;-72
2022/07/22 10:35:56;;;;;;;9.90;9.00;;;;;;;32.88;44.84;99083.83;105240;1268;74366;-73
2022/07/22 10:38:23;;;;;;;11.00;10.00;;;;;;;33.18;44.95;99082.82;105054;1271;61320;-73
2022/07/22 10:40:51;;;;;;;10.90;9.30;;;;;;;33.35;44.06;99079.91;105208;1268;61407;-73
2022/07/22 10:43:25;;;;;;;10.80;9.50;;;;;;;33.19;43.65;99080.23;105208;1271;76218;-73
2022/07/22 10:46:06;;;;;;;12.70;9.70;;;;;;;33.12;43.14;99080.06;105023;1271;69162;-75
2022/07/22 10:48:32;;;;;;;10.80;8.80;;;;;;;33.16;42.92;99081.23;104992;1271;72238;-74
2022/07/22 10:51:13;;;;;;;11.20;10.10;;;;;;;33.05;41.21;99081.73;105230;1271;61367;-73
2022/07/22 10:53:40;;;;;;;12.10;9.60;;;;;;;32.64;41.13;99083.02;105262;1271;61157;-72
2022/07/22 10:56:29;;;;;;;9.80;8.90;;;;;;;32.36;41.72;99081.84;105249;1271;75682;-73
2022/07/22 10:59:10;;;;;;;11.20;9.80;;;;;;;32.35;42.32;99081.04;105056;1270;70218;-75
2022/07/22 11:01:39;;;;;;;16.70;8.90;;;;;;;32.51;43.06;99076.60;105218;1270;73276;-74
2022/07/22 11:04:14;;;;;;;10.10;9.10;;;;;;;32.64;43.57;99073.96;104952;1269;61413;-73
2022/07/22 11:06:40;;;;;;;10.50;9.40;;;;;;;32.75;43.29;99073.92;105231;1271;61175;-72
2022/07/22 11:09:12;;;;;;;10.20;9.40;;;;;;;32.81;43.17;99070.16;104978;1271;61389;-73
2022/07/22 11:11:52;;;;;;;11.50;9.50;;;;;;;32.92;43.25;99066.08;105217;1271;69490;-73
2022/07/22 11:14:26;;;;;;;10.10;8.80;;;;;;;33.05;42.41;99064.85;105263;1271;73371;-72
2022/07/22 11:16:56;;;;;;;10.70;9.40;;;;;;;32.92;42.31;99067.66;105254;1271;61156;-73